createdAt,value
2018-08-09T00:03:37.714Z,56.58
2018-08-09T00:07:41.331Z,56.60
2018-08-09T00:11:44.943Z,56.99
2018-08-09T00:15:48.442Z,56.71
2018-08-09T00:19:51.940Z,57.31
2018-08-09T00:23:55.434Z,57.19
2018-08-09T00:27:58.851Z,57.40
2018-08-09T00:32:02.366Z,56.89
2018-08-09T00:36:05.809Z,56.89
2018-08-09T00:40:09.312Z,56.85
2018-08-09T00:44:12.867Z,56.61
2018-08-09T00:48:16.338Z,57.36
2018-08-09T00:52:19.822Z,56.69
2018-08-09T00:56:23.267Z,57.60
2018-08-09T01:00:26.776Z,57.48
2018-08-09T01:04:30.210Z,56.90
2018-08-09T01:08:33.662Z,56.92
2018-08-09T01:12:37.152Z,57.51
2018-08-09T01:16:40.758Z,57.49
2018-08-09T01:20:44.252Z,57.59
2018-08-09T01:24:47.748Z,57.54
2018-08-09T01:28:51.212Z,57.08
2018-08-09T01:32:54.826Z,56.98
2018-08-09T01:36:58.280Z,57.95
2018-08-09T01:41:01.895Z,57.09
2018-08-09T01:45:05.366Z,57.42
2018-08-09T01:49:08.785Z,57.40
2018-08-09T01:53:12.295Z,57.78
2018-08-09T01:57:15.799Z,57.36
2018-08-09T02:01:19.888Z,57.73
2018-08-09T02:05:23.353Z,57.36
2018-08-09T02:09:33.384Z,57.23
2018-08-09T02:13:37.019Z,56.86
2018-08-09T02:17:40.701Z,57.41
2018-08-09T02:21:44.182Z,56.68
2018-08-09T02:25:47.716Z,56.36
2018-08-09T02:29:51.159Z,56.75
2018-08-09T02:33:54.710Z,56.07
2018-08-09T02:37:58.204Z,55.83
2018-08-09T02:42:01.712Z,55.23
2018-08-09T02:46:05.193Z,54.92
2018-08-09T02:50:08.707Z,54.68
2018-08-09T02:54:12.179Z,54.21
2018-08-09T02:58:15.630Z,55.60
2018-08-09T03:02:19.124Z,55.41
2018-08-09T03:06:22.588Z,56.74
2018-08-09T03:10:26.044Z,56.87
2018-08-09T03:14:29.467Z,57.95
2018-08-09T03:18:32.996Z,58.04
2018-08-09T03:22:36.543Z,57.85
2018-08-09T03:26:40.054Z,58.23
2018-08-09T03:30:43.499Z,59.06
2018-08-09T03:34:46.978Z,59.30
2018-08-09T03:38:50.457Z,58.51
2018-08-09T03:42:53.963Z,59.70
2018-08-09T03:46:57.477Z,60.05
2018-08-09T03:51:00.989Z,58.73
2018-08-09T03:55:04.932Z,58.79
2018-08-09T03:59:08.450Z,59.09
2018-08-09T04:03:11.995Z,59.50
2018-08-09T04:07:15.514Z,60.35
2018-08-09T04:11:19.015Z,60.31
2018-08-09T04:15:22.515Z,60.46
2018-08-09T04:19:26.021Z,60.47
2018-08-09T04:23:29.600Z,59.51
2018-08-09T04:27:33.083Z,60.24
2018-08-09T04:31:36.566Z,59.27
2018-08-09T04:35:40.034Z,58.97
2018-08-09T04:39:43.551Z,58.54
2018-08-09T04:43:47.050Z,58.38
2018-08-09T04:47:50.592Z,57.65
2018-08-09T04:51:54.091Z,58.29
2018-08-09T04:55:57.590Z,58.89
2018-08-09T05:00:01.085Z,59.27
2018-08-09T05:04:04.598Z,58.91
2018-08-09T05:08:08.442Z,59.12
2018-08-09T05:12:11.976Z,59.27
2018-08-09T05:16:15.456Z,58.63
2018-08-09T05:20:19.023Z,59.28
2018-08-09T05:24:22.452Z,57.87
2018-08-09T05:28:25.918Z,58.66
2018-08-09T05:32:29.424Z,57.50
2018-08-09T05:36:32.899Z,57.66
2018-08-09T05:40:36.428Z,57.16
2018-08-09T05:44:39.927Z,56.51
2018-08-09T05:48:43.394Z,55.75
2018-08-09T05:52:46.980Z,55.46
2018-08-09T05:56:50.423Z,54.78
2018-08-09T06:00:53.884Z,55.05
2018-08-09T06:04:57.372Z,55.18
2018-08-09T06:09:00.885Z,54.71
2018-08-09T06:13:04.376Z,55.41
2018-08-09T06:17:07.860Z,54.05
2018-08-09T06:21:11.442Z,54.26
2018-08-09T06:25:15.060Z,53.33
2018-08-09T06:29:18.554Z,54.10
2018-08-09T06:33:23.022Z,53.30
2018-08-09T06:37:26.502Z,52.67
2018-08-09T06:41:29.986Z,52.44
2018-08-09T06:45:33.444Z,50.71
2018-08-09T06:49:36.898Z,51.23
2018-08-09T06:53:40.392Z,51.14
2018-08-09T06:57:43.860Z,52.23
2018-08-09T07:01:47.306Z,52.09
2018-08-09T07:05:50.818Z,50.72
2018-08-09T07:09:54.276Z,50.46
2018-08-09T07:13:57.734Z,48.99
2018-08-09T07:18:01.162Z,49.64
2018-08-09T07:22:04.666Z,49.13
2018-08-09T07:26:08.405Z,49.43
2018-08-09T07:30:13.158Z,49.81
2018-08-09T07:34:16.619Z,48.94
2018-08-09T07:38:20.093Z,49.24
2018-08-09T07:42:23.540Z,48.49
2018-08-09T07:46:27.017Z,48.68
2018-08-09T07:50:30.493Z,49.94
2018-08-09T07:54:34.945Z,49.87
2018-08-09T07:58:38.393Z,48.15
2018-08-09T08:02:42.294Z,48.89
2018-08-09T08:06:45.782Z,48.82
2018-08-09T08:10:49.728Z,48.99
2018-08-09T08:14:53.247Z,49.10
2018-08-09T08:18:56.705Z,47.82
2018-08-09T08:23:00.246Z,48.91
2018-08-09T08:27:03.741Z,48.02
2018-08-09T08:31:07.301Z,49.18
2018-08-09T08:35:11.133Z,48.33
2018-08-09T08:39:15.054Z,48.18
2018-08-09T08:43:18.997Z,47.63
2018-08-09T08:47:23.046Z,48.67
2018-08-09T08:51:27.693Z,47.61
2018-08-09T08:55:31.681Z,48.26
2018-08-09T08:59:35.839Z,46.71
2018-08-09T09:03:39.658Z,47.39
2018-08-09T09:07:43.464Z,47.08
2018-08-09T09:11:47.348Z,46.55
2018-08-09T09:15:50.895Z,45.91
2018-08-09T09:19:54.695Z,45.97
2018-08-09T09:23:58.223Z,45.57
2018-08-09T09:28:02.061Z,45.84
2018-08-09T09:32:05.677Z,45.18
2018-08-09T09:36:10.418Z,45.35
2018-08-09T09:40:13.938Z,45.79
2018-08-09T09:44:17.480Z,45.07
2018-08-09T09:48:21.062Z,45.93
2018-08-09T09:52:24.939Z,45.86
2018-08-09T09:56:28.951Z,44.95
2018-08-09T10:00:37.817Z,45.29
2018-08-09T10:04:41.404Z,44.99
2018-08-09T10:08:44.955Z,44.01
2018-08-09T10:12:48.514Z,44.45
2018-08-09T10:16:51.994Z,44.40
2018-08-09T10:20:55.505Z,44.97
2018-08-09T10:24:59.414Z,43.91
2018-08-09T10:29:02.911Z,44.92
2018-08-09T10:33:06.632Z,43.61
2018-08-09T10:37:10.184Z,43.65
2018-08-09T10:41:13.734Z,43.39
2018-08-09T10:45:17.343Z,42.87
2018-08-09T10:49:20.834Z,42.42
2018-08-09T10:53:24.371Z,42.18
2018-08-09T10:57:28.351Z,41.00
2018-08-09T11:01:32.163Z,41.61
2018-08-09T11:05:35.739Z,41.03
2018-08-09T11:09:39.414Z,40.31
2018-08-09T11:13:44.786Z,40.42
2018-08-09T11:17:48.285Z,39.49
2018-08-09T11:21:51.789Z,39.25
2018-08-09T11:25:55.472Z,37.98
2018-08-09T11:29:59.043Z,38.88
2018-08-09T11:34:02.867Z,38.41
2018-08-09T11:38:06.408Z,38.54
2018-08-09T11:42:09.925Z,38.44
2018-08-09T11:46:13.466Z,37.92
2018-08-09T11:50:17.259Z,37.32
2018-08-09T11:54:20.799Z,37.74
2018-08-09T11:58:24.417Z,37.56
2018-08-09T12:02:28.200Z,37.50
2018-08-09T12:06:31.780Z,36.70
2018-08-09T12:10:35.350Z,37.17
2018-08-09T12:14:38.910Z,37.12
2018-08-09T12:18:42.568Z,37.14
2018-08-09T12:22:46.071Z,36.24
2018-08-09T12:26:49.654Z,36.83
2018-08-09T12:30:53.594Z,36.83
2018-08-09T12:34:57.230Z,36.38
2018-08-09T12:39:00.827Z,37.16
2018-08-09T12:43:04.521Z,35.98
2018-08-09T12:47:08.387Z,37.44
2018-08-09T12:51:11.975Z,36.98
2018-08-09T12:55:15.711Z,36.53
2018-08-09T12:59:19.553Z,36.39
2018-08-09T13:03:23.099Z,35.51
2018-08-09T13:16:17.678Z,36.85
2018-08-09T13:20:21.802Z,37.72
2018-08-09T13:24:25.234Z,37.18
2018-08-09T13:28:28.623Z,37.20
2018-08-09T13:32:32.076Z,36.65
2018-08-09T13:36:35.495Z,35.91
2018-08-09T13:40:38.884Z,36.61
2018-08-09T13:44:42.275Z,36.05
2018-08-09T13:48:45.695Z,37.06
2018-08-09T13:52:49.130Z,35.94
2018-08-09T13:56:52.546Z,35.80
2018-08-09T14:00:56.001Z,36.67
2018-08-09T14:04:59.451Z,36.75
2018-08-09T14:09:02.987Z,35.22
2018-08-09T14:13:06.982Z,37.06
2018-08-09T14:17:10.997Z,36.15
2018-08-09T14:21:16.074Z,36.07
2018-08-09T14:25:21.145Z,35.50
2018-08-09T14:29:26.373Z,36.35
2018-08-09T14:33:30.775Z,35.13
2018-08-09T14:37:36.259Z,35.44
2018-08-09T14:41:40.511Z,35.23
2018-08-09T14:45:44.745Z,35.40
2018-08-09T14:49:48.931Z,36.18
2018-08-09T14:53:53.253Z,36.10
2018-08-09T14:57:59.402Z,36.04
2018-08-09T15:02:03.747Z,36.10
2018-08-09T15:06:08.944Z,35.79
2018-08-09T15:10:13.280Z,36.99
2018-08-09T15:18:31.031Z,35.29
2018-08-09T15:22:34.723Z,36.29
2018-08-09T15:26:38.618Z,35.35
2018-08-09T15:30:42.601Z,35.17
2018-08-09T15:34:46.379Z,36.46
2018-08-09T15:38:50.013Z,36.33
2018-08-09T15:42:53.849Z,36.53
2018-08-09T15:46:57.455Z,36.15
2018-08-09T15:51:02.122Z,35.69
2018-08-09T15:55:06.710Z,35.63
2018-08-09T15:59:10.272Z,36.08
2018-08-09T16:03:13.728Z,36.04
2018-08-09T16:07:17.275Z,36.06
2018-08-09T16:11:20.826Z,34.86
2018-08-09T16:15:24.489Z,35.80
2018-08-09T16:19:28.057Z,35.74
2018-08-09T16:23:31.583Z,35.81
2018-08-09T16:27:35.272Z,35.22
2018-08-09T16:31:38.857Z,35.35
2018-08-09T16:35:42.502Z,36.26
2018-08-09T16:39:46.075Z,36.52
2018-08-09T16:43:49.580Z,35.13
2018-08-09T16:47:54.087Z,35.82
2018-08-09T16:51:57.706Z,35.57
2018-08-09T16:56:01.379Z,35.89
2018-08-09T17:00:07.499Z,36.39
2018-08-09T17:04:11.139Z,36.39
2018-08-09T17:08:14.786Z,36.66
2018-08-09T17:12:18.490Z,36.84
2018-08-09T17:16:22.201Z,35.80
2018-08-09T17:20:28.117Z,37.05
2018-08-09T17:24:31.692Z,36.67
2018-08-09T17:28:35.385Z,35.44
2018-08-09T17:32:39.103Z,36.49
2018-08-09T17:36:42.613Z,36.13
2018-08-09T17:40:46.908Z,36.81
2018-08-09T17:44:50.378Z,36.51
2018-08-09T17:48:54.202Z,37.15
2018-08-09T17:52:59.851Z,37.57
2018-08-09T17:57:03.381Z,37.19
2018-08-09T18:01:06.926Z,36.60
2018-08-09T18:05:10.825Z,36.75
2018-08-09T18:09:14.304Z,36.83
2018-08-09T18:13:17.821Z,37.96
2018-08-09T18:17:21.432Z,37.44
2018-08-09T18:21:25.004Z,38.11
2018-08-09T18:25:29.620Z,39.20
2018-08-09T18:29:33.197Z,39.26
2018-08-09T18:33:36.968Z,39.75
2018-08-09T18:37:40.586Z,39.34
2018-08-09T18:41:44.280Z,40.27
2018-08-09T18:45:47.897Z,39.57
2018-08-09T18:49:51.915Z,40.07
2018-08-09T18:53:55.676Z,39.95
2018-08-09T18:57:59.470Z,40.93
2018-08-09T19:02:03.234Z,40.95
2018-08-09T19:06:06.912Z,40.43
2018-08-09T19:10:15.386Z,40.67
2018-08-09T19:14:19.068Z,41.02
2018-08-09T19:18:22.852Z,41.56
2018-08-09T19:22:27.216Z,42.06
2018-08-09T19:26:31.065Z,41.81
2018-08-09T19:30:34.653Z,41.76
2018-08-09T19:34:38.350Z,41.46
2018-08-09T19:38:42.093Z,41.81
2018-08-09T19:42:45.557Z,42.14
2018-08-09T19:46:49.095Z,42.30
2018-08-09T19:50:52.609Z,41.80
2018-08-09T19:54:56.179Z,41.75
2018-08-09T19:58:59.639Z,43.26
2018-08-09T20:03:03.118Z,43.15
2018-08-09T20:07:07.009Z,43.15
2018-08-09T20:11:10.517Z,42.56
2018-08-09T20:15:16.473Z,42.53
2018-08-09T20:19:19.920Z,42.81
2018-08-09T20:23:23.630Z,43.32
2018-08-09T20:27:27.319Z,42.99
2018-08-09T20:31:30.860Z,43.57
2018-08-09T20:35:34.301Z,43.02
2018-08-09T20:39:37.760Z,42.94
2018-08-09T20:47:54.162Z,43.39
2018-08-09T20:51:57.656Z,43.78
2018-08-09T20:56:01.445Z,43.33
2018-08-09T21:00:08.407Z,43.94
2018-08-09T21:04:11.894Z,43.67
2018-08-09T21:08:15.334Z,42.80
2018-08-09T21:12:19.806Z,43.04
2018-08-09T21:16:23.451Z,42.90
2018-08-09T21:20:26.947Z,42.94
2018-08-09T21:24:30.435Z,43.76
2018-08-09T21:28:34.386Z,43.54
2018-08-09T21:32:37.835Z,43.29
2018-08-09T21:36:42.247Z,42.84
2018-08-09T21:40:45.771Z,42.54
2018-08-09T21:44:49.638Z,42.75
2018-08-09T21:48:53.133Z,42.66
2018-08-09T21:52:56.969Z,42.54
2018-08-09T21:57:00.613Z,41.88
2018-08-09T22:01:05.813Z,42.67
2018-08-09T22:05:14.403Z,42.25
2018-08-09T22:09:23.183Z,42.46
2018-08-09T22:13:31.838Z,42.38
2018-08-09T22:17:40.315Z,42.29
2018-08-09T22:21:48.931Z,42.57
2018-08-09T22:25:52.348Z,42.42
2018-08-09T22:29:55.910Z,43.13
2018-08-09T22:33:59.429Z,42.94
2018-08-09T22:38:02.897Z,43.10
2018-08-09T22:42:06.482Z,42.36
2018-08-09T22:46:10.099Z,43.46
2018-08-09T22:50:13.686Z,43.18
2018-08-09T22:54:17.386Z,42.78
2018-08-09T22:58:20.981Z,42.91
2018-08-09T23:02:24.512Z,43.86
2018-08-09T23:06:30.467Z,43.94
2018-08-09T23:10:34.062Z,43.83
2018-08-09T23:14:37.468Z,43.69
2018-08-09T23:18:40.899Z,43.82
2018-08-09T23:22:44.388Z,43.93
2018-08-09T23:26:47.840Z,44.84
2018-08-09T23:30:51.333Z,44.82
2018-08-09T23:34:54.764Z,45.29
2018-08-09T23:38:58.262Z,44.73
2018-08-09T23:43:01.726Z,45.05
2018-08-09T23:47:05.158Z,45.40
2018-08-09T23:51:08.630Z,45.79
2018-08-09T23:55:15.014Z,45.52
2018-08-09T23:59:18.475Z,46.32
